| time (UTC) | temp C | wind direction | speed KPH | gust KPH | rain 1hr cm | rain 24hr cm | rain mn cm | humidity % | barometer mb |
| 20260510105356 | 2 | 0 | 0.0 | 0.0 | 0.00 | 0.30 | 0.00 | 87 | 974.5 |
| 20260510105226 | 2 | 0 | 0.0 | 0.0 | 0.00 | 0.30 | 0.00 | 87 | 974.5 |
| 20260510103853 | 1 | 0 | 0.0 | 0.0 | 0.00 | 0.30 | 0.00 | 90 | 974.2 |
| 20260510103723 | 1 | 0 | 0.0 | 0.0 | 0.00 | 0.30 | 0.00 | 90 | 974.2 |
| 20260510102351 | 1 | 252 | 0.0 | 1.6 | 0.00 | 0.30 | 0.00 | 90 | 973.9 |
| 20260510102221 | 1 | 252 | 0.0 | 1.6 | 0.00 | 0.30 | 0.00 | 90 | 973.9 |
| 20260510100848 | 1 | 0 | 0.0 | 0.0 | 0.00 | 0.30 | 0.00 | 89 | 973.4 |
| 20260510100718 | 1 | 0 | 0.0 | 0.0 | 0.00 | 0.30 | 0.00 | 89 | 973.4 |
| 20260510095446 | 1 | 289 | 0.0 | 1.6 | 0.00 | 0.30 | 0.00 | 88 | 973.3 |
| 20260510095316 | 1 | 289 | 0.0 | 1.6 | 0.00 | 0.30 | 0.00 | 88 | 973.3 |
| 20260510093943 | 2 | 288 | 1.6 | 4.8 | 0.00 | 0.30 | 0.00 | 83 | 972.9 |
| 20260510093813 | 2 | 288 | 1.6 | 4.8 | 0.00 | 0.30 | 0.00 | 83 | 972.9 |
| 20260510092441 | 2 | 295 | 3.2 | 6.4 | 0.00 | 0.30 | 0.00 | 81 | 972.6 |
| 20260510092311 | 2 | 295 | 3.2 | 6.4 | 0.00 | 0.30 | 0.00 | 81 | 972.6 |
| 20260510090938 | 2 | 291 | 1.6 | 3.2 | 0.00 | 0.30 | 0.00 | 80 | 972.3 |
| 20260510090808 | 2 | 291 | 1.6 | 3.2 | 0.00 | 0.30 | 0.00 | 80 | 972.3 |
| 20260510085436 | 3 | 296 | 3.2 | 4.8 | 0.00 | 0.30 | 0.00 | 78 | 971.9 |
| 20260510085344 | 3 | 296 | 3.2 | 4.8 | 0.00 | 0.30 | 0.00 | 78 | 971.9 |
| 20260510085306 | 3 | 296 | 3.2 | 4.8 | 0.00 | 0.30 | 0.00 | 78 | 971.9 |
| 20260510083933 | 3 | 297 | 3.2 | 6.4 | 0.00 | 0.30 | 0.00 | 78 | 971.8 |
| 20260510083803 | 3 | 297 | 3.2 | 6.4 | 0.00 | 0.30 | 0.00 | 78 | 971.8 |
| 20260510082431 | 3 | 297 | 1.6 | 4.8 | 0.00 | 0.30 | 0.00 | 77 | 971.7 |
| 20260510082300 | 3 | 297 | 1.6 | 4.8 | 0.00 | 0.30 | 0.00 | 77 | 971.7 |
| 20260510080928 | 1 | 0 | 0.0 | 0.0 | 0.00 | 0.30 | 0.00 | 87 | 971.5 |
| 20260510080758 | 1 | 0 | 0.0 | 0.0 | 0.00 | 0.30 | 0.00 | 87 | 971.5 |
| 20260510075426 | 3 | 0 | 0.0 | 0.0 | 0.00 | 0.30 | 0.00 | 83 | 971.8 |
| 20260510075255 | 3 | 0 | 0.0 | 0.0 | 0.00 | 0.30 | 0.00 | 83 | 971.8 |
| 20260510073923 | 3 | 298 | 3.2 | 3.2 | 0.00 | 0.30 | 0.00 | 75 | 971.4 |
| 20260510073753 | 3 | 298 | 3.2 | 3.2 | 0.00 | 0.30 | 0.00 | 75 | 971.4 |
| 20260510072420 | 3 | 298 | 3.2 | 4.8 | 0.00 | 0.30 | 0.00 | 74 | 971.3 |
| 20260510072250 | 3 | 298 | 3.2 | 4.8 | 0.00 | 0.30 | 0.00 | 74 | 971.3 |
| 20260510070918 | 3 | 302 | 4.8 | 9.7 | 0.00 | 0.30 | 0.00 | 74 | 971.1 |
| 20260510070748 | 3 | 302 | 4.8 | 9.7 | 0.00 | 0.30 | 0.00 | 74 | 971.1 |
| 20260510065415 | 4 | 306 | 4.8 | 11.3 | 0.00 | 0.30 | 0.00 | 72 | 971.1 |
| 20260510065245 | 4 | 306 | 4.8 | 11.3 | 0.00 | 0.30 | 0.00 | 72 | 971.1 |
| 20260510063913 | 4 | 300 | 6.4 | 12.9 | 0.00 | 0.30 | 0.00 | 72 | 971.2 |
| 20260510063743 | 4 | 300 | 6.4 | 12.9 | 0.00 | 0.30 | 0.00 | 72 | 971.2 |
| 20260510062410 | 5 | 301 | 8.0 | 12.9 | 0.00 | 0.30 | 0.00 | 71 | 971.2 |
| 20260510062240 | 5 | 301 | 8.0 | 12.9 | 0.00 | 0.30 | 0.00 | 71 | 971.2 |
| 20260510060908 | 5 | 303 | 9.7 | 17.7 | 0.00 | 0.30 | 0.00 | 69 | 971.1 |
| 20260510060737 | 5 | 303 | 9.7 | 17.7 | 0.00 | 0.30 | 0.00 | 69 | 971.1 |
| 20260510055405 | 5 | 301 | 11.3 | 17.7 | 0.00 | 0.30 | 0.00 | 67 | 970.9 |
| 20260510055235 | 5 | 301 | 11.3 | 17.7 | 0.00 | 0.30 | 0.00 | 67 | 970.9 |
| 20260510053903 | 6 | 302 | 11.3 | 16.1 | 0.00 | 0.30 | 0.00 | 68 | 970.5 |
| 20260510053732 | 6 | 302 | 11.3 | 16.1 | 0.00 | 0.30 | 0.00 | 68 | 970.5 |
| 20260510052400 | 6 | 305 | 9.7 | 16.1 | 0.00 | 0.30 | 0.00 | 70 | 970.5 |
| 20260510052230 | 6 | 305 | 9.7 | 16.1 | 0.00 | 0.30 | 0.00 | 70 | 970.5 |
| 20260510050858 | 6 | 304 | 8.0 | 11.3 | 0.00 | 0.30 | 0.00 | 68 | 970.4 |
| 20260510050727 | 6 | 304 | 8.0 | 11.3 | 0.00 | 0.30 | 0.00 | 68 | 970.4 |
| 20260510045355 | 6 | 301 | 4.8 | 9.7 | 0.00 | 0.30 | 0.00 | 71 | 970.1 |
| 20260510045225 | 6 | 301 | 4.8 | 9.7 | 0.00 | 0.30 | 0.00 | 71 | 970.1 |
| 20260510043852 | 6 | 311 | 0.0 | 1.6 | 0.00 | 0.30 | 0.00 | 76 | 969.7 |
| 20260510043722 | 6 | 311 | 0.0 | 1.6 | 0.00 | 0.30 | 0.00 | 76 | 969.7 |
| 20260510042350 | 6 | 290 | 0.0 | 3.2 | 0.00 | 0.30 | 0.00 | 79 | 969.8 |
| 20260510042220 | 6 | 290 | 0.0 | 3.2 | 0.00 | 0.30 | 0.00 | 79 | 969.8 |
| 20260510040847 | 7 | 307 | 1.6 | 3.2 | 0.00 | 0.30 | 0.00 | 78 | 969.7 |
| 20260510040717 | 7 | 307 | 1.6 | 3.2 | 0.00 | 0.30 | 0.00 | 78 | 969.7 |
| 20260510035345 | 7 | 333 | 1.6 | 3.2 | 0.00 | 0.30 | 0.30 | 75 | 969.5 |
| 20260510035214 | 7 | 333 | 1.6 | 3.2 | 0.00 | 0.30 | 0.30 | 75 | 969.5 |
| 20260510033843 | 8 | 308 | 3.2 | 6.4 | 0.00 | 0.30 | 0.30 | 67 | 969.6 |
| 20260510033712 | 8 | 308 | 3.2 | 6.4 | 0.00 | 0.30 | 0.30 | 67 | 969.6 |
| 20260510032340 | 7 | 12 | 0.0 | 4.8 | 0.00 | 0.30 | 0.30 | 72 | 968.9 |
| 20260510032209 | 7 | 12 | 0.0 | 4.8 | 0.00 | 0.30 | 0.30 | 72 | 968.9 |
| 20260510030837 | 8 | 10 | 0.0 | 3.2 | 0.00 | 0.30 | 0.30 | 70 | 968.9 |
| 20260510030707 | 8 | 10 | 0.0 | 3.2 | 0.00 | 0.30 | 0.30 | 70 | 968.9 |
| 20260510025435 | 8 | 0 | 0.0 | 0.0 | 0.00 | 0.30 | 0.30 | 77 | 968.6 |
| 20260510025306 | 8 | 0 | 0.0 | 0.0 | 0.00 | 0.30 | 0.30 | 77 | 968.6 |
| 20260510023932 | 8 | 344 | 1.6 | 4.8 | 0.00 | 0.30 | 0.30 | 76 | 968.0 |
| 20260510023802 | 8 | 344 | 1.6 | 4.8 | 0.00 | 0.30 | 0.30 | 76 | 968.0 |
| 20260510022430 | 8 | 330 | 1.6 | 6.4 | 0.00 | 0.30 | 0.30 | 75 | 967.7 |
| 20260510022259 | 8 | 330 | 1.6 | 6.4 | 0.00 | 0.30 | 0.30 | 75 | 967.7 |
| 20260510020927 | 9 | 315 | 3.2 | 9.7 | 0.00 | 0.30 | 0.30 | 75 | 967.7 |
| 20260510020757 | 9 | 315 | 3.2 | 9.7 | 0.00 | 0.30 | 0.30 | 75 | 967.7 |
| 20260510015424 | 10 | 311 | 4.8 | 11.3 | 0.00 | 0.30 | 0.30 | 74 | 967.2 |
| 20260510015254 | 10 | 311 | 4.8 | 11.3 | 0.00 | 0.30 | 0.30 | 74 | 967.2 |
| 20260510013922 | 10 | 306 | 8.0 | 16.1 | 0.00 | 0.30 | 0.30 | 71 | 967.3 |
| 20260510013752 | 10 | 306 | 8.0 | 16.1 | 0.00 | 0.30 | 0.30 | 71 | 967.3 |
| 20260510012419 | 11 | 299 | 8.0 | 12.9 | 0.00 | 0.30 | 0.30 | 68 | 966.8 |
| 20260510012249 | 11 | 299 | 8.0 | 12.9 | 0.00 | 0.30 | 0.30 | 68 | 966.8 |
| 20260510010917 | 12 | 304 | 6.4 | 14.5 | 0.00 | 0.30 | 0.30 | 73 | 966.7 |
| 20260510010747 | 12 | 304 | 6.4 | 14.5 | 0.00 | 0.30 | 0.30 | 73 | 966.7 |
| 20260510005414 | 11 | 0 | 0.0 | 0.0 | 0.00 | 0.30 | 0.30 | 95 | 966.3 |
| 20260510005244 | 11 | 0 | 0.0 | 0.0 | 0.00 | 0.30 | 0.30 | 95 | 966.3 |
| 20260510003912 | 11 | 0 | 0.0 | 0.0 | 0.00 | 0.30 | 0.30 | 94 | 965.8 |
| 20260510003742 | 11 | 0 | 0.0 | 0.0 | 0.00 | 0.30 | 0.30 | 94 | 965.8 |
| 20260510002409 | 12 | 0 | 0.0 | 0.0 | 0.00 | 0.30 | 0.30 | 92 | 965.5 |
| 20260510002239 | 12 | 0 | 0.0 | 0.0 | 0.00 | 0.30 | 0.30 | 92 | 965.5 |
| 20260510000907 | 12 | 0 | 0.0 | 0.0 | 0.00 | 0.30 | 0.30 | 91 | 965.4 |
| 20260510000737 | 12 | 0 | 0.0 | 0.0 | 0.00 | 0.30 | 0.30 | 91 | 965.4 |
| 20260509235404 | 12 | 0 | 0.0 | 0.0 | 0.00 | 0.30 | 0.30 | 91 | 965.2 |
| 20260509235234 | 12 | 0 | 0.0 | 0.0 | 0.00 | 0.30 | 0.30 | 91 | 965.2 |
| 20260509233902 | 12 | 0 | 0.0 | 0.0 | 0.00 | 0.30 | 0.30 | 89 | 965.0 |
| 20260509233731 | 12 | 0 | 0.0 | 0.0 | 0.00 | 0.30 | 0.30 | 89 | 965.0 |
| 20260509232359 | 12 | 0 | 0.0 | 0.0 | 0.00 | 0.30 | 0.30 | 88 | 964.7 |
| 20260509232229 | 12 | 0 | 0.0 | 0.0 | 0.00 | 0.30 | 0.30 | 88 | 964.7 |
| 20260509230857 | 12 | 0 | 0.0 | 0.0 | 0.00 | 0.30 | 0.30 | 86 | 964.4 |
| 20260509230726 | 12 | 0 | 0.0 | 0.0 | 0.00 | 0.30 | 0.30 | 86 | 964.4 |
| 20260509225354 | 12 | 289 | 1.6 | 4.8 | 0.00 | 0.30 | 0.30 | 84 | 964.3 |
| 20260509225224 | 12 | 289 | 1.6 | 4.8 | 0.00 | 0.30 | 0.30 | 84 | 964.3 |
| 20260509223823 | 12 | 161 | 0.0 | 4.8 | 0.00 | 0.30 | 0.30 | 85 | 964.0 |
| 20260509223721 | 12 | 161 | 0.0 | 4.8 | 0.00 | 0.30 | 0.30 | 85 | 964.0 |
| 20260509222319 | 12 | 133 | 0.0 | 3.2 | 0.00 | 0.30 | 0.30 | 86 | 963.7 |
| 20260509222219 | 12 | 133 | 0.0 | 3.2 | 0.00 | 0.30 | 0.30 | 86 | 963.7 |
| 20260509220816 | 12 | 162 | 1.6 | 3.2 | 0.00 | 0.30 | 0.30 | 86 | 963.7 |
| 20260509220716 | 12 | 162 | 1.6 | 3.2 | 0.00 | 0.30 | 0.30 | 86 | 963.7 |
| 20260509215244 | 12 | 184 | 1.6 | 9.7 | 0.00 | 0.30 | 0.30 | 86 | 964.1 |
| 20260509215214 | 12 | 184 | 1.6 | 9.7 | 0.00 | 0.30 | 0.30 | 86 | 964.1 |
| 20260509213711 | 11 | 112 | 1.6 | 6.4 | 0.03 | 0.30 | 0.30 | 91 | 963.8 |
| 20260509212241 | 11 | 58 | 1.6 | 6.4 | 0.30 | 0.30 | 0.30 | 91 | 964.2 |
| 20260509212208 | 11 | 58 | 1.6 | 6.4 | 0.30 | 0.30 | 0.30 | 91 | 964.2 |
| 20260509210738 | 11 | 138 | 3.2 | 12.9 | 0.30 | 0.30 | 0.30 | 89 | 964.0 |
| 20260509210706 | 11 | 138 | 3.2 | 12.9 | 0.30 | 0.30 | 0.30 | 89 | 964.0 |
| 20260509205235 | 11 | 164 | 3.2 | 14.5 | 0.30 | 0.30 | 0.30 | 94 | 963.8 |
| 20260509205203 | 11 | 164 | 3.2 | 14.5 | 0.30 | 0.30 | 0.30 | 94 | 963.8 |
| 20260509203733 | 12 | 151 | 3.2 | 12.9 | 0.28 | 0.28 | 0.28 | 94 | 963.9 |
| 20260509203701 | 12 | 151 | 3.2 | 12.9 | 0.28 | 0.28 | 0.28 | 94 | 963.9 |
| 20260509202230 | 13 | 155 | 4.8 | 20.9 | 0.00 | 0.00 | 0.00 | 85 | 963.9 |
| 20260509202158 | 13 | 155 | 4.8 | 20.9 | 0.00 | 0.00 | 0.00 | 85 | 963.9 |
| 20260509200728 | 13 | 182 | 6.4 | 17.7 | 0.00 | 0.00 | 0.00 | 78 | 963.2 |
| 20260509200655 | 13 | 182 | 6.4 | 17.7 | 0.00 | 0.00 | 0.00 | 78 | 963.2 |
| 20260509195225 | 13 | 141 | 4.8 | 16.1 | 0.00 | 0.00 | 0.00 | 77 | 963.3 |
| 20260509195153 | 13 | 141 | 4.8 | 16.1 | 0.00 | 0.00 | 0.00 | 77 | 963.3 |
| 20260509193723 | 14 | 178 | 6.4 | 25.7 | 0.00 | 0.00 | 0.00 | 77 | 963.4 |
| 20260509193650 | 14 | 178 | 6.4 | 25.7 | 0.00 | 0.00 | 0.00 | 77 | 963.4 |
| 20260509192220 | 14 | 148 | 4.8 | 25.7 | 0.00 | 0.00 | 0.00 | 78 | 963.4 |
| 20260509192148 | 14 | 148 | 4.8 | 25.7 | 0.00 | 0.00 | 0.00 | 78 | 963.4 |
| 20260509190718 | 13 | 148 | 4.8 | 14.5 | 0.00 | 0.00 | 0.00 | 83 | 963.8 |
| 20260509190645 | 13 | 148 | 4.8 | 14.5 | 0.00 | 0.00 | 0.00 | 83 | 963.8 |
| 20260509185315 | 14 | 136 | 6.4 | 17.7 | 0.00 | 0.00 | 0.00 | 81 | 963.8 |
| 20260509185243 | 14 | 136 | 6.4 | 17.7 | 0.00 | 0.00 | 0.00 | 81 | 963.8 |
| 20260509183813 | 13 | 127 | 6.4 | 20.9 | 0.00 | 0.00 | 0.00 | 83 | 963.7 |
| 20260509183740 | 13 | 127 | 6.4 | 20.9 | 0.00 | 0.00 | 0.00 | 83 | 963.7 |
| 20260509182310 | 13 | 139 | 6.4 | 20.9 | 0.00 | 0.00 | 0.00 | 82 | 964.4 |
| 20260509182238 | 13 | 139 | 6.4 | 20.9 | 0.00 | 0.00 | 0.00 | 82 | 964.4 |
| 20260509180808 | 14 | 143 | 6.4 | 16.1 | 0.00 | 0.00 | 0.00 | 79 | 964.1 |
| 20260509180735 | 14 | 143 | 6.4 | 16.1 | 0.00 | 0.00 | 0.00 | 79 | 964.1 |
| 20260509175233 | 15 | 136 | 4.8 | 14.5 | 0.00 | 0.00 | 0.00 | 72 | 964.2 |
| 20260509173802 | 15 | 141 | 9.7 | 27.4 | 0.00 | 0.00 | 0.00 | 72 | 964.2 |
| 20260509173730 | 15 | 141 | 9.7 | 27.4 | 0.00 | 0.00 | 0.00 | 72 | 964.2 |
| 20260509172300 | 15 | 135 | 6.4 | 16.1 | 0.00 | 0.00 | 0.00 | 73 | 964.4 |
| 20260509172228 | 15 | 135 | 6.4 | 16.1 | 0.00 | 0.00 | 0.00 | 73 | 964.4 |
| 20260509170758 | 16 | 140 | 6.4 | 20.9 | 0.00 | 0.00 | 0.00 | 69 | 964.4 |
| 20260509170725 | 16 | 140 | 6.4 | 20.9 | 0.00 | 0.00 | 0.00 | 69 | 964.4 |
| 20260509165255 | 15 | 145 | 6.4 | 14.5 | 0.00 | 0.00 | 0.00 | 74 | 964.5 |
| 20260509165222 | 15 | 145 | 6.4 | 14.5 | 0.00 | 0.00 | 0.00 | 74 | 964.5 |
| 20260509163752 | 15 | 142 | 6.4 | 14.5 | 0.00 | 0.00 | 0.00 | 74 | 964.8 |
| 20260509163720 | 15 | 142 | 6.4 | 14.5 | 0.00 | 0.00 | 0.00 | 74 | 964.8 |
| 20260509162249 | 15 | 132 | 3.2 | 14.5 | 0.00 | 0.00 | 0.00 | 75 | 965.5 |
| 20260509162217 | 15 | 132 | 3.2 | 14.5 | 0.00 | 0.00 | 0.00 | 75 | 965.5 |
| 20260509160715 | 15 | 153 | 3.2 | 16.1 | 0.00 | 0.00 | 0.00 | 74 | 966.2 |
| 20260509155245 | 15 | 150 | 4.8 | 14.5 | 0.00 | 0.00 | 0.00 | 77 | 966.2 |
| 20260509155212 | 15 | 150 | 4.8 | 14.5 | 0.00 | 0.00 | 0.00 | 77 | 966.2 |
| 20260509153742 | 15 | 152 | 4.8 | 14.5 | 0.00 | 0.00 | 0.00 | 75 | 965.9 |
| 20260509153710 | 15 | 152 | 4.8 | 14.5 | 0.00 | 0.00 | 0.00 | 75 | 965.9 |
| 20260509152240 | 14 | 137 | 6.4 | 16.1 | 0.00 | 0.00 | 0.00 | 78 | 966.1 |
| 20260509152207 | 14 | 137 | 6.4 | 16.1 | 0.00 | 0.00 | 0.00 | 78 | 966.1 |
| 20260509150705 | 13 | 179 | 4.8 | 14.5 | 0.00 | 0.00 | 0.00 | 81 | 966.3 |
| 20260509145234 | 13 | 139 | 4.8 | 14.5 | 0.00 | 0.00 | 0.00 | 81 | 965.9 |
| 20260509145202 | 13 | 139 | 4.8 | 14.5 | 0.00 | 0.00 | 0.00 | 81 | 965.9 |
| 20260509143732 | 13 | 161 | 4.8 | 16.1 | 0.00 | 0.00 | 0.00 | 80 | 966.2 |
| 20260509143659 | 13 | 161 | 4.8 | 16.1 | 0.00 | 0.00 | 0.00 | 80 | 966.2 |
| 20260509142157 | 12 | 163 | 3.2 | 12.9 | 0.00 | 0.00 | 0.00 | 84 | 966.2 |
| 20260509140727 | 12 | 154 | 3.2 | 12.9 | 0.00 | 0.00 | 0.00 | 83 | 966.2 |
| 20260509140654 | 12 | 154 | 3.2 | 12.9 | 0.00 | 0.00 | 0.00 | 83 | 966.2 |
| 20260509135224 | 12 | 145 | 3.2 | 14.5 | 0.00 | 0.00 | 0.00 | 86 | 966.4 |
| 20260509135152 | 12 | 145 | 3.2 | 14.5 | 0.00 | 0.00 | 0.00 | 86 | 966.4 |
| 20260509133721 | 11 | 149 | 4.8 | 14.5 | 0.00 | 0.00 | 0.00 | 88 | 966.4 |
| 20260509133649 | 11 | 149 | 4.8 | 14.5 | 0.00 | 0.00 | 0.00 | 88 | 966.4 |
| 20260509132219 | 11 | 163 | 3.2 | 14.5 | 0.00 | 0.00 | 0.00 | 90 | 966.6 |
| 20260509132147 | 11 | 163 | 3.2 | 14.5 | 0.00 | 0.00 | 0.00 | 90 | 966.6 |
| 20260509130716 | 11 | 148 | 3.2 | 12.9 | 0.00 | 0.00 | 0.00 | 90 | 966.6 |
| 20260509130644 | 11 | 148 | 3.2 | 12.9 | 0.00 | 0.00 | 0.00 | 90 | 966.6 |
| 20260509125214 | 10 | 178 | 3.2 | 11.3 | 0.00 | 0.00 | 0.00 | 92 | 966.6 |
| 20260509125142 | 10 | 178 | 3.2 | 11.3 | 0.00 | 0.00 | 0.00 | 92 | 966.6 |
| 20260509123712 | 10 | 180 | 3.2 | 12.9 | 0.00 | 0.00 | 0.00 | 94 | 966.9 |
| 20260509123639 | 10 | 180 | 3.2 | 12.9 | 0.00 | 0.00 | 0.00 | 94 | 966.9 |
| 20260509122137 | 10 | 161 | 1.6 | 12.9 | 0.00 | 0.00 | 0.00 | 95 | 966.8 |
| 20260509120634 | 10 | 151 | 1.6 | 14.5 | 0.00 | 0.00 | 0.00 | 95 | 967.1 |
| 20260509115232 | 10 | 129 | 1.6 | 6.4 | 0.00 | 0.00 | 0.00 | 97 | 966.9 |
| 20260509113801 | 9 | 147 | 1.6 | 9.7 | 0.00 | 0.00 | 0.00 | 99 | 967.0 |
| 20260509113729 | 9 | 147 | 1.6 | 9.7 | 0.00 | 0.00 | 0.00 | 99 | 967.0 |
| 20260509112258 | 8 | 137 | 1.6 | 11.3 | 0.00 | 0.00 | 0.00 | 99 | 966.9 |
| 20260509112226 | 8 | 137 | 1.6 | 11.3 | 0.00 | 0.00 | 0.00 | 99 | 966.9 |
| 20260509110756 | 8 | 153 | 1.6 | 9.7 | 0.00 | 0.00 | 0.00 | 99 | 966.9 |
| 20260509110724 | 8 | 153 | 1.6 | 9.7 | 0.00 | 0.00 | 0.00 | 99 | 966.9 |